createdAt,value
2018-09-11T00:04:05.064Z,12.30
2018-09-11T00:09:03.603Z,18.70
2018-09-11T00:14:00.983Z,18.30
2018-09-11T00:18:58.367Z,28.57
2018-09-11T00:23:55.746Z,14.97
2018-09-11T00:28:53.188Z,11.20
2018-09-11T00:33:50.560Z,17.83
2018-09-11T00:38:47.944Z,15.07
2018-09-11T00:43:45.350Z,19.93
2018-09-11T00:48:42.712Z,20.03
2018-09-11T00:53:40.100Z,19.13
2018-09-11T00:58:37.506Z,23.70
2018-09-11T01:03:34.896Z,17.50
2018-09-11T01:08:32.311Z,17.27
2018-09-11T01:13:29.707Z,16.93
2018-09-11T01:18:27.191Z,23.87
2018-09-11T01:23:24.623Z,21.23
2018-09-11T01:28:22.011Z,21.03
2018-09-11T01:33:19.400Z,15.63
2018-09-11T01:38:16.904Z,18.33
2018-09-11T01:43:14.284Z,24.73
2018-09-11T01:48:11.698Z,14.87
2018-09-11T01:53:09.088Z,26.10
2018-09-11T01:58:06.498Z,17.73
2018-09-11T02:03:03.967Z,27.23
2018-09-11T02:08:01.363Z,13.00
2018-09-11T02:12:58.786Z,23.93
2018-09-11T02:17:56.226Z,23.43
2018-09-11T02:22:53.611Z,16.33
2018-09-11T02:27:51.834Z,24.40
2018-09-11T02:32:49.211Z,16.03
2018-09-11T02:37:46.576Z,18.83
2018-09-11T02:42:43.999Z,16.87
2018-09-11T02:47:41.379Z,23.13
2018-09-11T02:52:38.971Z,21.27
2018-09-11T02:57:36.423Z,17.60
2018-09-11T03:02:33.785Z,20.23
2018-09-11T03:07:31.187Z,24.80
2018-09-11T03:12:28.571Z,15.97
2018-09-11T03:17:25.939Z,28.67
2018-09-11T03:22:23.359Z,25.73
2018-09-11T03:27:20.745Z,23.27
2018-09-11T03:32:18.131Z,23.13
2018-09-11T03:37:15.523Z,25.47
2018-09-11T03:42:12.947Z,20.00
2018-09-11T03:47:10.354Z,26.67
2018-09-11T03:52:07.847Z,20.30
2018-09-11T03:57:05.339Z,22.67
2018-09-11T04:02:02.791Z,22.77
2018-09-11T04:07:00.435Z,18.90
2018-09-11T04:11:57.811Z,20.93
2018-09-11T04:16:55.195Z,19.53
2018-09-11T04:21:52.567Z,23.73
2018-09-11T04:26:50.010Z,20.20
2018-09-11T04:31:47.450Z,13.87
2018-09-11T04:36:44.851Z,17.00
2018-09-11T04:41:42.297Z,15.50
2018-09-11T04:46:39.700Z,17.03
2018-09-11T04:51:37.079Z,14.97
2018-09-11T04:56:34.514Z,15.50
2018-09-11T05:01:31.919Z,23.33
2018-09-11T05:06:29.291Z,24.13
2018-09-11T05:11:26.826Z,20.70
2018-09-11T05:16:24.211Z,10.30
2018-09-11T05:21:21.615Z,11.03
2018-09-11T05:26:19.025Z,12.10
2018-09-11T05:31:16.942Z,19.27
2018-09-11T05:36:14.331Z,7.40
2018-09-11T05:41:11.711Z,12.73
2018-09-11T05:46:09.147Z,9.67
2018-09-11T05:51:06.674Z,14.20
2018-09-11T05:56:04.071Z,8.67
2018-09-11T06:01:01.476Z,14.43
2018-09-11T06:05:59.175Z,10.80
2018-09-11T06:10:56.595Z,10.70
2018-09-11T06:15:53.970Z,7.50
2018-09-11T06:20:51.360Z,12.40
2018-09-11T06:25:48.780Z,8.07
2018-09-11T06:30:46.142Z,17.67
2018-09-11T06:35:43.532Z,8.50
2018-09-11T06:40:40.926Z,10.27
2018-09-11T06:45:38.491Z,7.00
2018-09-11T06:50:35.887Z,8.33
2018-09-11T06:55:33.295Z,10.03
2018-09-11T07:00:30.924Z,3.20
2018-09-11T07:05:28.325Z,5.93
2018-09-11T07:10:26.064Z,6.03
2018-09-11T07:15:23.455Z,7.10
2018-09-11T07:20:21.091Z,11.33
2018-09-11T07:25:18.292Z,6.13
2018-09-11T07:30:15.777Z,7.90
2018-09-11T07:35:13.143Z,2.83
2018-09-11T07:40:11.612Z,10.40
2018-09-11T07:45:09.076Z,11.70
2018-09-11T07:50:06.593Z,9.00
2018-09-11T07:55:03.994Z,2.67
2018-09-11T08:00:01.412Z,8.17
2018-09-11T08:04:58.904Z,8.00
2018-09-11T08:09:57.350Z,3.90
2018-09-11T08:14:54.771Z,9.33
2018-09-11T08:19:52.243Z,4.00
2018-09-11T08:24:49.566Z,4.83
2018-09-11T08:29:46.969Z,2.53
2018-09-11T08:34:44.412Z,5.43
2018-09-11T08:39:51.003Z,4.37
2018-09-11T08:44:48.414Z,2.30
2018-09-11T08:49:45.840Z,3.97
2018-09-11T08:54:43.239Z,6.90
2018-09-11T08:59:40.651Z,6.50
2018-09-11T09:04:38.056Z,4.13
2018-09-11T09:09:37.402Z,4.07
2018-09-11T09:14:34.839Z,1.87
2018-09-11T09:19:32.233Z,4.30
2018-09-11T09:24:29.623Z,6.10
2018-09-11T09:29:27.023Z,2.80
2018-09-11T09:34:24.423Z,4.40
2018-09-11T09:39:38.518Z,3.33
2018-09-11T09:44:36.644Z,1.37
2018-09-11T09:49:34.051Z,1.60
2018-09-11T09:54:31.439Z,3.53
2018-09-11T09:59:28.831Z,3.27
2018-09-11T10:04:26.242Z,3.43
2018-09-11T10:09:34.726Z,1.17
2018-09-11T10:14:32.186Z,3.90
2018-09-11T10:19:29.575Z,1.43
2018-09-11T10:24:26.959Z,3.47
2018-09-11T10:29:24.332Z,2.80
2018-09-11T10:34:21.774Z,3.07
2018-09-11T10:39:32.026Z,4.90
2018-09-11T10:44:29.489Z,2.80
2018-09-11T10:49:26.898Z,1.93
2018-09-11T10:54:24.276Z,7.60
2018-09-11T10:59:21.661Z,6.50
2018-09-11T11:04:19.137Z,2.93
2018-09-11T11:09:18.210Z,2.73
2018-09-11T11:14:15.647Z,2.13
2018-09-11T11:19:13.030Z,4.83
2018-09-11T11:24:10.430Z,1.07
2018-09-11T11:29:07.855Z,3.70
2018-09-11T11:34:05.432Z,3.23
2018-09-11T11:39:07.912Z,1.60
2018-09-11T11:44:06.431Z,10.50
2018-09-11T11:49:04.108Z,15.07
2018-09-11T11:54:01.504Z,1.63
2018-09-11T11:58:58.992Z,1.90
2018-09-11T12:03:56.378Z,9.17
2018-09-11T12:08:53.803Z,3.67
2018-09-11T12:13:51.440Z,1.47
2018-09-11T12:18:48.816Z,3.73
2018-09-11T12:23:46.217Z,1.33
2018-09-11T12:28:47.543Z,8.17
2018-09-11T12:33:46.182Z,15.63
2018-09-11T12:38:44.926Z,6.63
2018-09-11T12:43:49.973Z,7.57
2018-09-11T12:48:49.154Z,2.70
2018-09-11T12:53:49.547Z,1.80
2018-09-11T12:58:48.358Z,9.77
2018-09-11T13:03:47.522Z,9.97
2018-09-11T13:08:48.004Z,8.47
2018-09-11T13:13:46.018Z,1.83
2018-09-11T13:18:44.325Z,1.33
2018-09-11T13:23:43.142Z,3.23
2018-09-11T13:28:40.598Z,3.27
2018-09-11T13:33:37.985Z,4.53
2018-09-11T13:38:35.384Z,3.70
2018-09-11T13:43:32.743Z,1.63
2018-09-11T13:48:30.134Z,2.70
2018-09-11T13:53:27.507Z,1.27
2018-09-11T13:58:24.910Z,2.80
2018-09-11T14:03:22.308Z,2.50
2018-09-11T14:08:19.718Z,8.23
2018-09-11T14:13:17.107Z,8.47
2018-09-11T14:18:14.503Z,2.80
2018-09-11T14:23:11.887Z,2.27
2018-09-11T14:28:09.263Z,5.10
2018-09-11T14:33:06.668Z,7.30
2018-09-11T14:38:04.116Z,12.37
2018-09-11T14:43:01.543Z,3.13
2018-09-11T14:47:58.999Z,3.67
2018-09-11T14:52:56.379Z,2.93
2018-09-11T14:57:53.775Z,1.23
2018-09-11T15:02:51.191Z,10.27
2018-09-11T15:07:48.621Z,2.83
2018-09-11T15:12:46.011Z,2.50
2018-09-11T15:17:43.386Z,2.60
2018-09-11T15:22:40.853Z,2.93
2018-09-11T15:27:38.194Z,2.10
2018-09-11T15:32:35.615Z,3.63
2018-09-11T15:37:33.023Z,9.43
2018-09-11T15:42:30.470Z,11.87
2018-09-11T15:47:27.859Z,5.10
2018-09-11T15:52:29.662Z,5.73
2018-09-11T15:57:28.303Z,4.60
2018-09-11T16:02:25.767Z,1.70
2018-09-11T16:07:23.366Z,4.20
2018-09-11T16:12:20.855Z,3.57
2018-09-11T16:17:18.274Z,8.10
2018-09-11T16:22:15.680Z,6.03
2018-09-11T16:27:13.072Z,2.03
2018-09-11T16:32:10.519Z,2.30
2018-09-11T16:37:07.942Z,4.23
2018-09-11T16:42:05.672Z,6.97
2018-09-11T16:47:03.084Z,3.37
2018-09-11T16:52:00.447Z,5.40
2018-09-11T16:56:57.846Z,3.47
2018-09-11T17:01:55.295Z,2.27
2018-09-11T17:06:52.687Z,5.23
2018-09-11T17:11:50.129Z,5.03
2018-09-11T17:16:48.326Z,3.20
2018-09-11T17:21:45.713Z,6.93
2018-09-11T17:26:43.117Z,4.93
2018-09-11T17:31:40.548Z,2.57
2018-09-11T17:36:39.437Z,4.97
2018-09-11T17:41:37.268Z,9.43
2018-09-11T17:46:34.818Z,2.93
2018-09-11T17:51:32.244Z,10.50
2018-09-11T17:56:29.707Z,16.03
2018-09-11T18:01:27.168Z,2.83
2018-09-11T18:06:24.571Z,6.40
2018-09-11T18:11:21.955Z,4.77
2018-09-11T18:16:19.378Z,6.73
2018-09-11T18:21:16.851Z,3.87
2018-09-11T18:26:14.303Z,11.73
2018-09-11T18:31:11.645Z,6.80
2018-09-11T18:36:09.040Z,3.27
2018-09-11T18:41:06.447Z,3.00
2018-09-11T18:46:03.851Z,6.90
2018-09-11T18:51:01.226Z,3.87
2018-09-11T18:55:58.600Z,2.43
2018-09-11T19:00:55.979Z,4.93
2018-09-11T19:05:53.368Z,4.80
2018-09-11T19:10:50.744Z,4.10
2018-09-11T19:15:48.174Z,3.30
2018-09-11T19:20:45.531Z,9.50
2018-09-11T19:25:42.905Z,2.70
2018-09-11T19:30:40.275Z,4.87
2018-09-11T19:35:37.647Z,3.87
2018-09-11T19:40:35.055Z,4.00
2018-09-11T19:45:32.430Z,3.87
2018-09-11T19:50:29.881Z,3.87
2018-09-11T19:55:27.246Z,5.50
2018-09-11T20:00:24.632Z,5.33
2018-09-11T20:05:21.995Z,5.60
2018-09-11T20:10:20.426Z,4.53
2018-09-11T20:15:17.802Z,2.10
2018-09-11T20:20:15.171Z,3.60
2018-09-11T20:25:12.621Z,7.13
2018-09-11T20:30:10.079Z,3.67
2018-09-11T20:35:07.555Z,5.67
2018-09-11T20:40:06.326Z,4.80
2018-09-11T20:45:03.793Z,3.33
2018-09-11T20:50:01.219Z,2.90
2018-09-11T20:54:58.618Z,11.23
2018-09-11T20:59:56.003Z,8.90
2018-09-11T21:04:53.383Z,3.23
2018-09-11T21:10:00.983Z,10.10
2018-09-11T21:14:58.423Z,9.17
2018-09-11T21:19:55.792Z,5.00
2018-09-11T21:24:53.167Z,4.97
2018-09-11T21:29:50.583Z,7.30
2018-09-11T21:34:47.971Z,6.67
2018-09-11T21:39:45.365Z,7.13
2018-09-11T21:44:42.740Z,7.80
2018-09-11T21:49:40.136Z,4.80
2018-09-11T21:54:37.554Z,8.00
2018-09-11T21:59:34.932Z,4.67
2018-09-11T22:04:32.311Z,5.67
2018-09-11T22:09:33.299Z,4.20
2018-09-11T22:14:30.704Z,4.03
2018-09-11T22:19:28.083Z,3.07
2018-09-11T22:24:25.463Z,6.37
2018-09-11T22:29:22.883Z,4.07
2018-09-11T22:34:20.283Z,6.10
2018-09-11T22:39:31.277Z,2.50
2018-09-11T22:44:28.813Z,7.77
2018-09-11T22:49:26.187Z,5.30
2018-09-11T22:54:23.566Z,4.90
2018-09-11T22:59:20.939Z,5.00
2018-09-11T23:04:18.312Z,6.57
2018-09-11T23:09:16.578Z,8.70
2018-09-11T23:14:14.168Z,4.13
2018-09-11T23:19:11.555Z,8.63
2018-09-11T23:24:08.935Z,4.00
2018-09-11T23:29:06.331Z,2.70
2018-09-11T23:34:03.735Z,8.43
2018-09-11T23:39:01.124Z,5.40
2018-09-11T23:43:58.567Z,9.03
2018-09-11T23:48:55.983Z,9.47
2018-09-11T23:53:53.383Z,6.03
2018-09-11T23:58:51.280Z,4.93
